sensor_id;sensor_type;location;lat;lon;timestamp;P1;durP1;ratioP1;P2;durP2;ratioP2
16286;SDS011;8251;53.568;10.018;2022-12-24T00:00:37;22.27;;;8.63;;
16286;SDS011;8251;53.568;10.018;2022-12-24T00:03:06;19.17;;;7.63;;
16286;SDS011;8251;53.568;10.018;2022-12-24T00:05:37;17.93;;;7.90;;
16286;SDS011;8251;53.568;10.018;2022-12-24T00:08:04;21.37;;;8.87;;
16286;SDS011;8251;53.568;10.018;2022-12-24T00:10:34;20.87;;;9.13;;
16286;SDS011;8251;53.568;10.018;2022-12-24T00:13:01;20.67;;;7.47;;
16286;SDS011;8251;53.568;10.018;2022-12-24T00:15:28;17.33;;;7.53;;
16286;SDS011;8251;53.568;10.018;2022-12-24T00:17:56;25.17;;;8.43;;
16286;SDS011;8251;53.568;10.018;2022-12-24T00:20:23;16.50;;;8.40;;
16286;SDS011;8251;53.568;10.018;2022-12-24T00:22:50;23.70;;;8.53;;
16286;SDS011;8251;53.568;10.018;2022-12-24T00:25:20;20.87;;;8.00;;
16286;SDS011;8251;53.568;10.018;2022-12-24T00:27:47;15.30;;;7.40;;
16286;SDS011;8251;53.568;10.018;2022-12-24T00:30:13;18.60;;;8.03;;
16286;SDS011;8251;53.568;10.018;2022-12-24T00:32:40;17.57;;;7.80;;
16286;SDS011;8251;53.568;10.018;2022-12-24T00:35:09;16.37;;;8.63;;
16286;SDS011;8251;53.568;10.018;2022-12-24T00:37:39;16.20;;;7.33;;
16286;SDS011;8251;53.568;10.018;2022-12-24T00:40:06;20.13;;;7.73;;
16286;SDS011;8251;53.568;10.018;2022-12-24T00:42:34;17.50;;;8.20;;
16286;SDS011;8251;53.568;10.018;2022-12-24T00:45:01;14.20;;;6.90;;
16286;SDS011;8251;53.568;10.018;2022-12-24T00:47:28;13.93;;;6.37;;
16286;SDS011;8251;53.568;10.018;2022-12-24T00:49:55;18.90;;;7.87;;
16286;SDS011;8251;53.568;10.018;2022-12-24T00:52:23;18.13;;;6.87;;
16286;SDS011;8251;53.568;10.018;2022-12-24T00:54:54;17.57;;;7.17;;
16286;SDS011;8251;53.568;10.018;2022-12-24T00:57:21;21.00;;;8.07;;
16286;SDS011;8251;53.568;10.018;2022-12-24T00:59:48;15.20;;;7.63;;
16286;SDS011;8251;53.568;10.018;2022-12-24T01:02:15;22.00;;;8.07;;
16286;SDS011;8251;53.568;10.018;2022-12-24T01:04:42;19.63;;;7.57;;
16286;SDS011;8251;53.568;10.018;2022-12-24T01:07:27;19.20;;;8.90;;
16286;SDS011;8251;53.568;10.018;2022-12-24T01:09:55;15.57;;;7.10;;
16286;SDS011;8251;53.568;10.018;2022-12-24T01:12:22;17.90;;;6.97;;
16286;SDS011;8251;53.568;10.018;2022-12-24T01:14:49;18.43;;;7.90;;
16286;SDS011;8251;53.568;10.018;2022-12-24T01:17:16;19.67;;;9.00;;
16286;SDS011;8251;53.568;10.018;2022-12-24T01:19:43;23.80;;;7.50;;
16286;SDS011;8251;53.568;10.018;2022-12-24T01:22:10;17.37;;;7.67;;
16286;SDS011;8251;53.568;10.018;2022-12-24T01:24:39;22.63;;;8.03;;
16286;SDS011;8251;53.568;10.018;2022-12-24T01:27:06;20.67;;;8.27;;
16286;SDS011;8251;53.568;10.018;2022-12-24T01:29:33;22.27;;;8.33;;
16286;SDS011;8251;53.568;10.018;2022-12-24T01:32:00;17.67;;;7.67;;
16286;SDS011;8251;53.568;10.018;2022-12-24T01:34:27;18.53;;;8.07;;
16286;SDS011;8251;53.568;10.018;2022-12-24T01:36:54;18.57;;;8.20;;
16286;SDS011;8251;53.568;10.018;2022-12-24T01:39:24;20.73;;;8.23;;
16286;SDS011;8251;53.568;10.018;2022-12-24T01:41:52;17.13;;;7.73;;
16286;SDS011;8251;53.568;10.018;2022-12-24T01:44:39;20.53;;;7.57;;
16286;SDS011;8251;53.568;10.018;2022-12-24T01:47:08;18.30;;;8.03;;
16286;SDS011;8251;53.568;10.018;2022-12-24T01:49:38;19.17;;;7.70;;
16286;SDS011;8251;53.568;10.018;2022-12-24T01:52:10;17.53;;;7.10;;
16286;SDS011;8251;53.568;10.018;2022-12-24T01:54:40;16.80;;;7.67;;
16286;SDS011;8251;53.568;10.018;2022-12-24T01:57:15;15.13;;;7.47;;
16286;SDS011;8251;53.568;10.018;2022-12-24T01:59:45;18.63;;;8.73;;
16286;SDS011;8251;53.568;10.018;2022-12-24T02:02:16;19.60;;;8.60;;
16286;SDS011;8251;53.568;10.018;2022-12-24T02:04:45;17.10;;;7.33;;
16286;SDS011;8251;53.568;10.018;2022-12-24T02:07:16;15.50;;;6.63;;
16286;SDS011;8251;53.568;10.018;2022-12-24T02:09:43;20.37;;;7.47;;
16286;SDS011;8251;53.568;10.018;2022-12-24T02:12:10;14.73;;;6.30;;
16286;SDS011;8251;53.568;10.018;2022-12-24T02:14:41;18.47;;;6.93;;
16286;SDS011;8251;53.568;10.018;2022-12-24T02:17:11;19.13;;;6.93;;
16286;SDS011;8251;53.568;10.018;2022-12-24T02:23:06;17.57;;;7.73;;
16286;SDS011;8251;53.568;10.018;2022-12-24T02:25:57;17.80;;;7.37;;
16286;SDS011;8251;53.568;10.018;2022-12-24T02:28:57;19.57;;;7.10;;
16286;SDS011;8251;53.568;10.018;2022-12-24T02:31:41;18.93;;;7.03;;
16286;SDS011;8251;53.568;10.018;2022-12-24T02:34:12;21.00;;;7.47;;
16286;SDS011;8251;53.568;10.018;2022-12-24T02:36:44;16.33;;;6.60;;
16286;SDS011;8251;53.568;10.018;2022-12-24T02:39:14;14.07;;;6.57;;
16286;SDS011;8251;53.568;10.018;2022-12-24T02:41:49;15.57;;;6.53;;
16286;SDS011;8251;53.568;10.018;2022-12-24T02:44:33;18.47;;;6.70;;
16286;SDS011;8251;53.568;10.018;2022-12-24T02:47:06;16.53;;;6.67;;
16286;SDS011;8251;53.568;10.018;2022-12-24T02:49:37;16.17;;;6.87;;
16286;SDS011;8251;53.568;10.018;2022-12-24T02:52:04;21.20;;;7.03;;
16286;SDS011;8251;53.568;10.018;2022-12-24T02:54:31;15.23;;;6.93;;
16286;SDS011;8251;53.568;10.018;2022-12-24T02:57:03;16.43;;;6.13;;
16286;SDS011;8251;53.568;10.018;2022-12-24T02:59:56;16.10;;;6.50;;
16286;SDS011;8251;53.568;10.018;2022-12-24T03:02:39;18.03;;;6.63;;
16286;SDS011;8251;53.568;10.018;2022-12-24T03:05:19;16.53;;;6.93;;
16286;SDS011;8251;53.568;10.018;2022-12-24T03:07:55;14.93;;;6.10;;
16286;SDS011;8251;53.568;10.018;2022-12-24T03:10:30;11.87;;;5.67;;
16286;SDS011;8251;53.568;10.018;2022-12-24T03:13:05;14.00;;;6.23;;
16286;SDS011;8251;53.568;10.018;2022-12-24T03:15:35;15.10;;;7.60;;
16286;SDS011;8251;53.568;10.018;2022-12-24T03:18:05;11.70;;;6.27;;
16286;SDS011;8251;53.568;10.018;2022-12-24T03:20:36;19.20;;;6.10;;
16286;SDS011;8251;53.568;10.018;2022-12-24T03:23:05;13.90;;;5.13;;
16286;SDS011;8251;53.568;10.018;2022-12-24T03:25:33;15.40;;;6.83;;
16286;SDS011;8251;53.568;10.018;2022-12-24T03:28:03;15.60;;;6.50;;
16286;SDS011;8251;53.568;10.018;2022-12-24T03:30:32;15.47;;;6.07;;
16286;SDS011;8251;53.568;10.018;2022-12-24T03:32:59;15.63;;;6.50;;
16286;SDS011;8251;53.568;10.018;2022-12-24T03:35:27;13.40;;;5.90;;
16286;SDS011;8251;53.568;10.018;2022-12-24T03:37:57;13.33;;;6.17;;
16286;SDS011;8251;53.568;10.018;2022-12-24T03:40:24;16.77;;;6.53;;
16286;SDS011;8251;53.568;10.018;2022-12-24T03:42:51;13.00;;;5.80;;
16286;SDS011;8251;53.568;10.018;2022-12-24T03:45:18;13.87;;;6.77;;
16286;SDS011;8251;53.568;10.018;2022-12-24T03:47:45;11.73;;;5.97;;
16286;SDS011;8251;53.568;10.018;2022-12-24T03:50:11;15.73;;;6.60;;
16286;SDS011;8251;53.568;10.018;2022-12-24T03:52:44;10.37;;;6.20;;
16286;SDS011;8251;53.568;10.018;2022-12-24T03:55:11;14.33;;;5.73;;
16286;SDS011;8251;53.568;10.018;2022-12-24T03:57:38;11.47;;;5.03;;
16286;SDS011;8251;53.568;10.018;2022-12-24T04:00:10;14.80;;;5.60;;
16286;SDS011;8251;53.568;10.018;2022-12-24T04:02:38;13.53;;;6.07;;
16286;SDS011;8251;53.568;10.018;2022-12-24T04:05:05;13.03;;;6.30;;
16286;SDS011;8251;53.568;10.018;2022-12-24T04:07:33;17.40;;;6.40;;
16286;SDS011;8251;53.568;10.018;2022-12-24T04:10:01;10.43;;;6.13;;
16286;SDS011;8251;53.568;10.018;2022-12-24T04:12:29;14.53;;;6.20;;
16286;SDS011;8251;53.568;10.018;2022-12-24T04:14:55;9.90;;;5.40;;
16286;SDS011;8251;53.568;10.018;2022-12-24T04:17:22;14.03;;;6.50;;
16286;SDS011;8251;53.568;10.018;2022-12-24T04:19:49;11.23;;;5.47;;
16286;SDS011;8251;53.568;10.018;2022-12-24T04:22:17;15.13;;;6.67;;
16286;SDS011;8251;53.568;10.018;2022-12-24T04:24:46;13.87;;;6.30;;
16286;SDS011;8251;53.568;10.018;2022-12-24T04:27:15;13.43;;;5.20;;
16286;SDS011;8251;53.568;10.018;2022-12-24T04:29:42;13.40;;;5.30;;
16286;SDS011;8251;53.568;10.018;2022-12-24T04:32:12;14.33;;;5.80;;
16286;SDS011;8251;53.568;10.018;2022-12-24T04:34:39;9.67;;;5.00;;
16286;SDS011;8251;53.568;10.018;2022-12-24T04:37:06;14.73;;;6.03;;
16286;SDS011;8251;53.568;10.018;2022-12-24T04:39:32;8.93;;;4.87;;
16286;SDS011;8251;53.568;10.018;2022-12-24T04:42:02;10.70;;;5.27;;
16286;SDS011;8251;53.568;10.018;2022-12-24T04:44:31;10.67;;;4.77;;
16286;SDS011;8251;53.568;10.018;2022-12-24T04:46:58;9.07;;;4.87;;
16286;SDS011;8251;53.568;10.018;2022-12-24T04:49:28;10.73;;;4.47;;
16286;SDS011;8251;53.568;10.018;2022-12-24T04:51:55;13.17;;;6.10;;
16286;SDS011;8251;53.568;10.018;2022-12-24T04:54:22;9.90;;;4.87;;
16286;SDS011;8251;53.568;10.018;2022-12-24T04:56:49;9.10;;;4.73;;
16286;SDS011;8251;53.568;10.018;2022-12-24T04:59:17;12.40;;;5.27;;
16286;SDS011;8251;53.568;10.018;2022-12-24T05:01:45;10.27;;;5.73;;
16286;SDS011;8251;53.568;10.018;2022-12-24T05:04:12;8.63;;;4.80;;
16286;SDS011;8251;53.568;10.018;2022-12-24T05:06:39;9.07;;;4.33;;
16286;SDS011;8251;53.568;10.018;2022-12-24T05:09:09;8.67;;;4.40;;
16286;SDS011;8251;53.568;10.018;2022-12-24T05:11:36;8.27;;;4.17;;
16286;SDS011;8251;53.568;10.018;2022-12-24T05:14:03;11.37;;;5.23;;
16286;SDS011;8251;53.568;10.018;2022-12-24T05:16:29;10.47;;;4.60;;
16286;SDS011;8251;53.568;10.018;2022-12-24T05:18:58;9.67;;;4.97;;
16286;SDS011;8251;53.568;10.018;2022-12-24T05:21:25;9.20;;;4.27;;
16286;SDS011;8251;53.568;10.018;2022-12-24T05:23:52;9.53;;;4.40;;
16286;SDS011;8251;53.568;10.018;2022-12-24T05:26:37;9.60;;;4.50;;
16286;SDS011;8251;53.568;10.018;2022-12-24T05:29:07;9.63;;;4.63;;
16286;SDS011;8251;53.568;10.018;2022-12-24T05:31:36;10.03;;;4.70;;
16286;SDS011;8251;53.568;10.018;2022-12-24T05:34:05;10.00;;;5.10;;
16286;SDS011;8251;53.568;10.018;2022-12-24T05:36:33;8.27;;;4.40;;
16286;SDS011;8251;53.568;10.018;2022-12-24T05:39:03;10.73;;;4.90;;
16286;SDS011;8251;53.568;10.018;2022-12-24T05:41:31;8.93;;;5.00;;
16286;SDS011;8251;53.568;10.018;2022-12-24T05:43:58;9.13;;;4.53;;
16286;SDS011;8251;53.568;10.018;2022-12-24T05:46:25;12.30;;;6.53;;
16286;SDS011;8251;53.568;10.018;2022-12-24T05:48:52;7.77;;;4.33;;
16286;SDS011;8251;53.568;10.018;2022-12-24T05:51:20;9.23;;;5.10;;
16286;SDS011;8251;53.568;10.018;2022-12-24T05:53:48;10.40;;;4.73;;
16286;SDS011;8251;53.568;10.018;2022-12-24T05:56:19;11.03;;;5.30;;
16286;SDS011;8251;53.568;10.018;2022-12-24T05:58:48;12.70;;;5.63;;
16286;SDS011;8251;53.568;10.018;2022-12-24T06:01:16;8.93;;;4.97;;
16286;SDS011;8251;53.568;10.018;2022-12-24T06:03:43;9.27;;;4.67;;
16286;SDS011;8251;53.568;10.018;2022-12-24T06:06:11;7.17;;;4.10;;
16286;SDS011;8251;53.568;10.018;2022-12-24T06:08:41;9.07;;;4.90;;
16286;SDS011;8251;53.568;10.018;2022-12-24T06:11:08;9.20;;;4.37;;
16286;SDS011;8251;53.568;10.018;2022-12-24T06:13:40;6.80;;;4.17;;
16286;SDS011;8251;53.568;10.018;2022-12-24T06:16:11;9.27;;;4.23;;
16286;SDS011;8251;53.568;10.018;2022-12-24T06:18:39;7.90;;;4.30;;
16286;SDS011;8251;53.568;10.018;2022-12-24T06:21:10;9.60;;;4.50;;
16286;SDS011;8251;53.568;10.018;2022-12-24T06:23:38;8.43;;;4.43;;
16286;SDS011;8251;53.568;10.018;2022-12-24T06:26:08;8.60;;;4.90;;
16286;SDS011;8251;53.568;10.018;2022-12-24T06:28:39;9.50;;;4.00;;
16286;SDS011;8251;53.568;10.018;2022-12-24T06:31:08;8.83;;;4.30;;
16286;SDS011;8251;53.568;10.018;2022-12-24T06:33:38;5.67;;;3.63;;
16286;SDS011;8251;53.568;10.018;2022-12-24T06:36:05;7.03;;;4.23;;
16286;SDS011;8251;53.568;10.018;2022-12-24T06:38:32;8.83;;;4.00;;
16286;SDS011;8251;53.568;10.018;2022-12-24T06:41:03;8.30;;;3.67;;
16286;SDS011;8251;53.568;10.018;2022-12-24T06:43:32;8.60;;;4.53;;
16286;SDS011;8251;53.568;10.018;2022-12-24T06:46:00;7.53;;;4.13;;
16286;SDS011;8251;53.568;10.018;2022-12-24T06:48:28;6.13;;;3.57;;
16286;SDS011;8251;53.568;10.018;2022-12-24T06:50:55;8.80;;;3.97;;
16286;SDS011;8251;53.568;10.018;2022-12-24T06:53:22;7.10;;;3.87;;
16286;SDS011;8251;53.568;10.018;2022-12-24T06:55:49;6.10;;;3.60;;
16286;SDS011;8251;53.568;10.018;2022-12-24T06:58:17;7.63;;;4.33;;
16286;SDS011;8251;53.568;10.018;2022-12-24T07:00:46;6.93;;;3.77;;
16286;SDS011;8251;53.568;10.018;2022-12-24T07:03:16;8.87;;;3.83;;
16286;SDS011;8251;53.568;10.018;2022-12-24T07:05:42;6.97;;;3.87;;
16286;SDS011;8251;53.568;10.018;2022-12-24T07:08:09;6.57;;;3.23;;
16286;SDS011;8251;53.568;10.018;2022-12-24T07:10:39;6.80;;;3.80;;
16286;SDS011;8251;53.568;10.018;2022-12-24T07:13:06;6.83;;;3.17;;
16286;SDS011;8251;53.568;10.018;2022-12-24T07:15:34;7.70;;;3.03;;
16286;SDS011;8251;53.568;10.018;2022-12-24T07:18:01;5.70;;;3.50;;
16286;SDS011;8251;53.568;10.018;2022-12-24T07:20:28;5.77;;;3.20;;
16286;SDS011;8251;53.568;10.018;2022-12-24T07:22:55;7.40;;;3.50;;
16286;SDS011;8251;53.568;10.018;2022-12-24T07:25:27;5.70;;;3.50;;
16286;SDS011;8251;53.568;10.018;2022-12-24T07:27:54;6.67;;;3.90;;
16286;SDS011;8251;53.568;10.018;2022-12-24T07:30:21;6.20;;;3.50;;
16286;SDS011;8251;53.568;10.018;2022-12-24T07:32:50;8.47;;;3.27;;
16286;SDS011;8251;53.568;10.018;2022-12-24T07:35:17;5.83;;;3.60;;
16286;SDS011;8251;53.568;10.018;2022-12-24T07:37:44;7.07;;;3.67;;
16286;SDS011;8251;53.568;10.018;2022-12-24T07:40:11;5.33;;;2.53;;
16286;SDS011;8251;53.568;10.018;2022-12-24T07:42:37;7.23;;;3.47;;
16286;SDS011;8251;53.568;10.018;2022-12-24T07:45:08;6.23;;;3.47;;
16286;SDS011;8251;53.568;10.018;2022-12-24T07:47:37;6.20;;;3.70;;
16286;SDS011;8251;53.568;10.018;2022-12-24T07:50:06;6.27;;;2.97;;
16286;SDS011;8251;53.568;10.018;2022-12-24T07:52:34;5.00;;;3.10;;
16286;SDS011;8251;53.568;10.018;2022-12-24T07:55:01;6.60;;;3.00;;
16286;SDS011;8251;53.568;10.018;2022-12-24T07:57:28;4.47;;;3.00;;
16286;SDS011;8251;53.568;10.018;2022-12-24T07:59:54;6.83;;;3.20;;
16286;SDS011;8251;53.568;10.018;2022-12-24T08:02:21;5.13;;;2.80;;
16286;SDS011;8251;53.568;10.018;2022-12-24T08:04:48;3.50;;;2.43;;
16286;SDS011;8251;53.568;10.018;2022-12-24T08:07:19;4.37;;;3.10;;
16286;SDS011;8251;53.568;10.018;2022-12-24T08:09:46;5.67;;;2.90;;
16286;SDS011;8251;53.568;10.018;2022-12-24T08:12:13;3.67;;;2.73;;
16286;SDS011;8251;53.568;10.018;2022-12-24T08:14:40;6.00;;;3.40;;
16286;SDS011;8251;53.568;10.018;2022-12-24T08:17:06;6.20;;;3.33;;
16286;SDS011;8251;53.568;10.018;2022-12-24T08:19:36;8.87;;;4.57;;
16286;SDS011;8251;53.568;10.018;2022-12-24T08:22:03;5.13;;;3.17;;
16286;SDS011;8251;53.568;10.018;2022-12-24T08:24:31;5.63;;;3.30;;
16286;SDS011;8251;53.568;10.018;2022-12-24T08:27:04;4.67;;;3.10;;
16286;SDS011;8251;53.568;10.018;2022-12-24T08:29:31;4.77;;;3.23;;
16286;SDS011;8251;53.568;10.018;2022-12-24T08:31:58;4.90;;;3.20;;
16286;SDS011;8251;53.568;10.018;2022-12-24T08:34:25;4.93;;;3.13;;
16286;SDS011;8251;53.568;10.018;2022-12-24T08:36:52;4.57;;;2.63;;
16286;SDS011;8251;53.568;10.018;2022-12-24T08:39:19;3.37;;;2.73;;
16286;SDS011;8251;53.568;10.018;2022-12-24T08:41:51;5.77;;;3.23;;
16286;SDS011;8251;53.568;10.018;2022-12-24T08:44:24;4.67;;;2.97;;
16286;SDS011;8251;53.568;10.018;2022-12-24T08:46:55;3.80;;;2.40;;
16286;SDS011;8251;53.568;10.018;2022-12-24T08:49:22;5.20;;;2.80;;
16286;SDS011;8251;53.568;10.018;2022-12-24T08:51:49;3.67;;;2.57;;
16286;SDS011;8251;53.568;10.018;2022-12-24T08:54:17;5.03;;;2.80;;
16286;SDS011;8251;53.568;10.018;2022-12-24T08:56:44;5.70;;;2.77;;
16286;SDS011;8251;53.568;10.018;2022-12-24T08:59:12;4.70;;;3.07;;
16286;SDS011;8251;53.568;10.018;2022-12-24T09:01:39;6.37;;;3.13;;
16286;SDS011;8251;53.568;10.018;2022-12-24T09:04:06;6.67;;;3.20;;
16286;SDS011;8251;53.568;10.018;2022-12-24T09:06:36;4.30;;;2.67;;
16286;SDS011;8251;53.568;10.018;2022-12-24T09:09:03;5.77;;;2.73;;
16286;SDS011;8251;53.568;10.018;2022-12-24T09:11:30;3.93;;;2.13;;
16286;SDS011;8251;53.568;10.018;2022-12-24T09:13:59;4.10;;;2.40;;
16286;SDS011;8251;53.568;10.018;2022-12-24T09:16:30;5.43;;;3.33;;
16286;SDS011;8251;53.568;10.018;2022-12-24T09:18:57;4.17;;;2.57;;
16286;SDS011;8251;53.568;10.018;2022-12-24T09:21:25;4.23;;;2.90;;
16286;SDS011;8251;53.568;10.018;2022-12-24T09:23:53;4.53;;;3.03;;
16286;SDS011;8251;53.568;10.018;2022-12-24T09:26:20;7.53;;;2.93;;
16286;SDS011;8251;53.568;10.018;2022-12-24T09:28:48;5.10;;;3.10;;
16286;SDS011;8251;53.568;10.018;2022-12-24T09:31:16;5.67;;;2.83;;
16286;SDS011;8251;53.568;10.018;2022-12-24T09:33:45;5.10;;;2.90;;
16286;SDS011;8251;53.568;10.018;2022-12-24T09:36:13;4.43;;;3.43;;
16286;SDS011;8251;53.568;10.018;2022-12-24T09:38:43;4.40;;;2.67;;
16286;SDS011;8251;53.568;10.018;2022-12-24T09:41:11;4.50;;;2.80;;
16286;SDS011;8251;53.568;10.018;2022-12-24T09:43:43;6.23;;;2.63;;
16286;SDS011;8251;53.568;10.018;2022-12-24T09:46:14;4.30;;;2.90;;
16286;SDS011;8251;53.568;10.018;2022-12-24T09:48:47;5.17;;;3.10;;
16286;SDS011;8251;53.568;10.018;2022-12-24T09:51:20;11.60;;;3.17;;
16286;SDS011;8251;53.568;10.018;2022-12-24T09:53:54;4.97;;;3.00;;
16286;SDS011;8251;53.568;10.018;2022-12-24T09:56:27;5.07;;;3.30;;
16286;SDS011;8251;53.568;10.018;2022-12-24T09:58:59;3.87;;;2.50;;
16286;SDS011;8251;53.568;10.018;2022-12-24T10:01:28;6.10;;;3.27;;
16286;SDS011;8251;53.568;10.018;2022-12-24T10:03:58;7.40;;;4.10;;
16286;SDS011;8251;53.568;10.018;2022-12-24T10:06:32;6.80;;;3.80;;
16286;SDS011;8251;53.568;10.018;2022-12-24T10:09:06;5.33;;;3.37;;
16286;SDS011;8251;53.568;10.018;2022-12-24T10:11:42;4.60;;;3.07;;
16286;SDS011;8251;53.568;10.018;2022-12-24T10:14:23;6.80;;;2.70;;
16286;SDS011;8251;53.568;10.018;2022-12-24T10:17:02;4.50;;;2.80;;
16286;SDS011;8251;53.568;10.018;2022-12-24T10:19:46;4.00;;;3.20;;
16286;SDS011;8251;53.568;10.018;2022-12-24T10:22:25;7.23;;;4.00;;
16286;SDS011;8251;53.568;10.018;2022-12-24T10:25:05;7.03;;;4.20;;
16286;SDS011;8251;53.568;10.018;2022-12-24T10:27:43;8.83;;;4.27;;
16286;SDS011;8251;53.568;10.018;2022-12-24T10:30:12;7.00;;;3.70;;
16286;SDS011;8251;53.568;10.018;2022-12-24T10:32:41;5.53;;;3.63;;
16286;SDS011;8251;53.568;10.018;2022-12-24T10:35:15;5.53;;;3.67;;
16286;SDS011;8251;53.568;10.018;2022-12-24T10:37:46;6.87;;;4.27;;
16286;SDS011;8251;53.568;10.018;2022-12-24T10:40:15;8.07;;;4.17;;
16286;SDS011;8251;53.568;10.018;2022-12-24T10:42:51;7.30;;;3.97;;
16286;SDS011;8251;53.568;10.018;2022-12-24T10:45:19;6.47;;;2.93;;
16286;SDS011;8251;53.568;10.018;2022-12-24T10:47:48;6.87;;;3.20;;
16286;SDS011;8251;53.568;10.018;2022-12-24T10:50:26;4.73;;;2.80;;
16286;SDS011;8251;53.568;10.018;2022-12-24T10:52:59;4.37;;;3.20;;
16286;SDS011;8251;53.568;10.018;2022-12-24T10:55:34;5.83;;;3.60;;
16286;SDS011;8251;53.568;10.018;2022-12-24T10:58:03;4.80;;;3.30;;
16286;SDS011;8251;53.568;10.018;2022-12-24T11:00:31;6.13;;;3.47;;
16286;SDS011;8251;53.568;10.018;2022-12-24T11:03:05;8.87;;;5.57;;
16286;SDS011;8251;53.568;10.018;2022-12-24T11:05:47;6.17;;;3.60;;
16286;SDS011;8251;53.568;10.018;2022-12-24T11:08:25;6.33;;;3.67;;
16286;SDS011;8251;53.568;10.018;2022-12-24T11:10:53;5.20;;;3.27;;
16286;SDS011;8251;53.568;10.018;2022-12-24T11:13:23;4.97;;;3.27;;
16286;SDS011;8251;53.568;10.018;2022-12-24T11:15:58;6.70;;;3.63;;
16286;SDS011;8251;53.568;10.018;2022-12-24T11:18:27;6.07;;;3.80;;
16286;SDS011;8251;53.568;10.018;2022-12-24T11:20:57;7.43;;;4.13;;
16286;SDS011;8251;53.568;10.018;2022-12-24T11:23:28;6.23;;;3.77;;
16286;SDS011;8251;53.568;10.018;2022-12-24T11:25:58;6.07;;;4.20;;
16286;SDS011;8251;53.568;10.018;2022-12-24T11:28:30;7.17;;;3.80;;
16286;SDS011;8251;53.568;10.018;2022-12-24T11:30:59;7.43;;;3.90;;
16286;SDS011;8251;53.568;10.018;2022-12-24T11:33:44;9.13;;;4.50;;
16286;SDS011;8251;53.568;10.018;2022-12-24T11:36:13;6.67;;;4.07;;
16286;SDS011;8251;53.568;10.018;2022-12-24T11:38:42;5.53;;;4.00;;
16286;SDS011;8251;53.568;10.018;2022-12-24T11:41:21;5.37;;;3.77;;
16286;SDS011;8251;53.568;10.018;2022-12-24T11:43:50;7.00;;;3.93;;
16286;SDS011;8251;53.568;10.018;2022-12-24T11:46:35;8.20;;;4.77;;
16286;SDS011;8251;53.568;10.018;2022-12-24T11:49:04;7.53;;;4.47;;
16286;SDS011;8251;53.568;10.018;2022-12-24T11:51:44;6.93;;;4.20;;
16286;SDS011;8251;53.568;10.018;2022-12-24T11:54:26;4.80;;;4.00;;
16286;SDS011;8251;53.568;10.018;2022-12-24T11:56:57;5.80;;;3.33;;
16286;SDS011;8251;53.568;10.018;2022-12-24T11:59:28;6.93;;;4.30;;
16286;SDS011;8251;53.568;10.018;2022-12-24T12:01:59;9.93;;;4.40;;
16286;SDS011;8251;53.568;10.018;2022-12-24T12:04:39;9.27;;;5.57;;
16286;SDS011;8251;53.568;10.018;2022-12-24T12:07:11;7.27;;;4.63;;
16286;SDS011;8251;53.568;10.018;2022-12-24T12:09:44;6.57;;;4.43;;
16286;SDS011;8251;53.568;10.018;2022-12-24T12:12:16;11.20;;;5.13;;
16286;SDS011;8251;53.568;10.018;2022-12-24T12:14:47;5.30;;;3.87;;
16286;SDS011;8251;53.568;10.018;2022-12-24T12:17:21;6.37;;;4.37;;
16286;SDS011;8251;53.568;10.018;2022-12-24T12:19:55;9.27;;;5.00;;
16286;SDS011;8251;53.568;10.018;2022-12-24T12:22:27;10.60;;;5.57;;
16286;SDS011;8251;53.568;10.018;2022-12-24T12:25:00;11.93;;;5.63;;
16286;SDS011;8251;53.568;10.018;2022-12-24T12:27:31;9.30;;;5.43;;
16286;SDS011;8251;53.568;10.018;2022-12-24T12:30:03;11.57;;;5.23;;
16286;SDS011;8251;53.568;10.018;2022-12-24T12:32:35;9.67;;;5.17;;
16286;SDS011;8251;53.568;10.018;2022-12-24T12:35:15;11.67;;;6.03;;
16286;SDS011;8251;53.568;10.018;2022-12-24T12:37:51;10.77;;;5.90;;
16286;SDS011;8251;53.568;10.018;2022-12-24T12:40:27;20.53;;;7.00;;
16286;SDS011;8251;53.568;10.018;2022-12-24T12:43:14;18.37;;;7.37;;
16286;SDS011;8251;53.568;10.018;2022-12-24T12:45:54;18.83;;;7.57;;
16286;SDS011;8251;53.568;10.018;2022-12-24T12:48:32;11.50;;;5.90;;
16286;SDS011;8251;53.568;10.018;2022-12-24T12:51:12;12.20;;;6.23;;
16286;SDS011;8251;53.568;10.018;2022-12-24T12:53:52;17.97;;;6.47;;
16286;SDS011;8251;53.568;10.018;2022-12-24T12:56:32;9.40;;;6.07;;
16286;SDS011;8251;53.568;10.018;2022-12-24T12:59:01;10.03;;;6.37;;
16286;SDS011;8251;53.568;10.018;2022-12-24T13:01:37;15.33;;;6.77;;
16286;SDS011;8251;53.568;10.018;2022-12-24T13:04:20;19.60;;;6.67;;
16286;SDS011;8251;53.568;10.018;2022-12-24T13:10:38;15.53;;;6.87;;
16286;SDS011;8251;53.568;10.018;2022-12-24T13:13:25;11.47;;;6.47;;
16286;SDS011;8251;53.568;10.018;2022-12-24T13:16:13;16.10;;;7.17;;
16286;SDS011;8251;53.568;10.018;2022-12-24T13:19:03;15.20;;;6.57;;
16286;SDS011;8251;53.568;10.018;2022-12-24T13:21:42;13.57;;;6.37;;
16286;SDS011;8251;53.568;10.018;2022-12-24T13:24:14;10.77;;;6.10;;
16286;SDS011;8251;53.568;10.018;2022-12-24T13:29:43;17.10;;;6.27;;
16286;SDS011;8251;53.568;10.018;2022-12-24T13:32:37;15.93;;;7.07;;
16286;SDS011;8251;53.568;10.018;2022-12-24T13:35:36;13.47;;;6.13;;
16286;SDS011;8251;53.568;10.018;2022-12-24T13:38:29;14.30;;;7.03;;
16286;SDS011;8251;53.568;10.018;2022-12-24T13:44:17;12.87;;;5.60;;
16286;SDS011;8251;53.568;10.018;2022-12-24T13:46:49;14.67;;;5.77;;
16286;SDS011;8251;53.568;10.018;2022-12-24T13:49:25;14.27;;;5.67;;
16286;SDS011;8251;53.568;10.018;2022-12-24T13:52:04;12.00;;;5.73;;
16286;SDS011;8251;53.568;10.018;2022-12-24T13:54:33;11.90;;;5.37;;
16286;SDS011;8251;53.568;10.018;2022-12-24T13:57:02;10.87;;;4.47;;
16286;SDS011;8251;53.568;10.018;2022-12-24T13:59:55;17.07;;;6.90;;
16286;SDS011;8251;53.568;10.018;2022-12-24T14:02:25;15.40;;;5.33;;
16286;SDS011;8251;53.568;10.018;2022-12-24T14:04:59;13.00;;;5.60;;
16286;SDS011;8251;53.568;10.018;2022-12-24T14:07:28;11.53;;;4.43;;
16286;SDS011;8251;53.568;10.018;2022-12-24T14:09:56;14.27;;;5.87;;
16286;SDS011;8251;53.568;10.018;2022-12-24T14:12:30;12.87;;;5.07;;
16286;SDS011;8251;53.568;10.018;2022-12-24T14:18:32;14.83;;;5.27;;
16286;SDS011;8251;53.568;10.018;2022-12-24T14:21:03;24.57;;;6.50;;
16286;SDS011;8251;53.568;10.018;2022-12-24T14:23:39;16.30;;;5.87;;
16286;SDS011;8251;53.568;10.018;2022-12-24T14:26:13;21.50;;;5.23;;
16286;SDS011;8251;53.568;10.018;2022-12-24T14:28:44;19.13;;;5.27;;
16286;SDS011;8251;53.568;10.018;2022-12-24T14:31:15;21.50;;;6.07;;
16286;SDS011;8251;53.568;10.018;2022-12-24T14:33:45;15.73;;;6.63;;
16286;SDS011;8251;53.568;10.018;2022-12-24T14:36:12;14.27;;;6.13;;
16286;SDS011;8251;53.568;10.018;2022-12-24T14:38:43;13.97;;;6.60;;
16286;SDS011;8251;53.568;10.018;2022-12-24T14:41:15;20.03;;;7.53;;
16286;SDS011;8251;53.568;10.018;2022-12-24T14:43:52;17.07;;;7.03;;
16286;SDS011;8251;53.568;10.018;2022-12-24T14:46:31;14.77;;;6.77;;
16286;SDS011;8251;53.568;10.018;2022-12-24T14:49:10;19.73;;;6.97;;
16286;SDS011;8251;53.568;10.018;2022-12-24T14:51:51;18.33;;;7.77;;
16286;SDS011;8251;53.568;10.018;2022-12-24T14:54:30;17.03;;;7.80;;
16286;SDS011;8251;53.568;10.018;2022-12-24T14:57:09;17.73;;;7.57;;
16286;SDS011;8251;53.568;10.018;2022-12-24T14:59:41;21.10;;;6.90;;
16286;SDS011;8251;53.568;10.018;2022-12-24T15:05:14;13.13;;;6.77;;
16286;SDS011;8251;53.568;10.018;2022-12-24T15:07:44;22.37;;;8.03;;
16286;SDS011;8251;53.568;10.018;2022-12-24T15:10:22;20.30;;;7.13;;
16286;SDS011;8251;53.568;10.018;2022-12-24T15:12:53;18.87;;;7.30;;
16286;SDS011;8251;53.568;10.018;2022-12-24T15:15:22;24.20;;;7.90;;
16286;SDS011;8251;53.568;10.018;2022-12-24T15:17:49;25.30;;;6.90;;
16286;SDS011;8251;53.568;10.018;2022-12-24T15:20:19;18.33;;;6.90;;
16286;SDS011;8251;53.568;10.018;2022-12-24T15:22:49;19.47;;;6.87;;